Swift Arrow — WAFK — position and weather

sailwx.info

Track history (hours):
 
Tides and Currents Weather Stations Pressure Air Temp Water Temp Dewpoint Dewpoint Depression Visibility Wind Speed Wind Dir Waves Ship Positions

Swift Arrow

Owner: ARROW LAUNCH SERVICE INC, Port Angeles, WA. More information available from US FCC via Universal Licensing System and Coast Guard Vessel Documentation Center.

Last reported at 2016-Jul-20 11:21 UTC. Time now 2016-Jul-26 17:57 UTC.
Position N 47°15' W 122°26'.

Type: Port tender. MMSI: 369021000.

Date/timePositionNaut miles runAvg speedWind from/ knotsBaromVisibWave heightAir tempDewpointWater temp
2016-Jul-20 11:21N 47°15' W 122°26'4 5.3
2016-Jul-20 10:33N 47°19' W 122°30'3 0.2
2016-Jul-19 18:33N 47°16' W 122°27'0 0.1
2016-Jul-19 17:33N 47°16' W 122°27'0 0.1
2016-Jul-19 16:34N 47°16' W 122°27'0 0.1
2016-Jul-19 15:33N 47°16' W 122°27'  
2016-Jul-16 16:11N 47°15' W 122°26'711.2
2016-Jul-16 15:34N 47°22' W 122°24'1414.0
2016-Jul-16 14:33N 47°36' W 122°23'2 0.1
2016-Jul-16 03:33N 47°35' W 122°22'1 1.0
2016-Jul-16 02:33N 47°34' W 122°21'0 0.1
2016-Jul-16 01:33N 47°34' W 122°21'0 0.3
2016-Jul-16 00:34N 47°34' W 122°21'0 0.4
2016-Jul-15 23:34N 47°34' W 122°21'0 0.0
2016-Jul-15 22:34N 47°34' W 122°21'0 0.0
2016-Jul-15 21:33N 47°34' W 122°21'0 0.0
2016-Jul-15 20:33N 47°34' W 122°21'0 0.0
2016-Jul-15 19:33N 47°34' W 122°21'0 0.0
2016-Jul-15 18:33N 47°34' W 122°21'0 0.0
2016-Jul-15 17:33N 47°34' W 122°21'3 3.2
2016-Jul-15 16:34N 47°37' W 122°24'2 2.3
2016-Jul-15 15:33N 47°36' W 122°20'2 1.9
2016-Jul-15 14:34N 47°34' W 122°21'0 0.0
2016-Jul-15 01:27N 47°34' W 122°21'4 4.0
2016-Jul-15 00:33N 47°32' W 122°25'1514.7
2016-Jul-14 23:33N 47°18' W 122°27'2 0.1
2016-Jul-14 02:33N 47°16' W 122°26'1 1.4
2016-Jul-14 01:33N 47°17' W 122°25'2 0.7
2016-Jul-13 23:06N 47°15' W 122°26'0 0.0
2016-Jul-13 22:31N 47°15' W 122°26'0 0.0
2016-Jul-12 23:33N 47°16' W 122°26'1313.1
2016-Jul-12 22:33N 47°29' W 122°26'6 6.4
2016-Jul-12 21:33N 47°34' W 122°21'1 1.3
2016-Jul-12 20:33N 47°36' W 122°22'2 1.5
2016-Jul-12 19:33N 47°37' W 122°22'1 0.9
2016-Jul-12 18:33N 47°37' W 122°23'3 3.0
2016-Jul-12 17:33N 47°35' W 122°27'1212.1
2016-Jul-12 16:34N 47°24' W 122°32'  
Track history (hours):
 
Tides and Currents Weather Stations Pressure Air Temp Water Temp Dewpoint Dewpoint Depression Visibility Wind Speed Wind Dir Waves Ship Positions

Swift Arrow

Owner: ARROW LAUNCH SERVICE INC, Port Angeles, WA. More information available from US FCC via Universal Licensing System and Coast Guard Vessel Documentation Center.

Last reported at 2016-Jul-20 11:21 UTC. Time now 2016-Jul-26 17:57 UTC.
Position N 47°15' W 122°26'.

Type: Port tender. MMSI: 369021000.

Date/timePositionNaut miles runAvg speedWind from/ knotsBaromVisibWave heightAir tempDewpointWater temp
2016-Jul-20 11:21N 47°15' W 122°26'4 5.3
2016-Jul-20 10:33N 47°19' W 122°30'3 0.2
2016-Jul-19 18:33N 47°16' W 122°27'0 0.1
2016-Jul-19 17:33N 47°16' W 122°27'0 0.1
2016-Jul-19 16:34N 47°16' W 122°27'0 0.1
2016-Jul-19 15:33N 47°16' W 122°27'  
2016-Jul-16 16:11N 47°15' W 122°26'711.2
2016-Jul-16 15:34N 47°22' W 122°24'1414.0
2016-Jul-16 14:33N 47°36' W 122°23'2 0.1
2016-Jul-16 03:33N 47°35' W 122°22'1 1.0
2016-Jul-16 02:33N 47°34' W 122°21'0 0.1
2016-Jul-16 01:33N 47°34' W 122°21'0 0.3
2016-Jul-16 00:34N 47°34' W 122°21'0 0.4
2016-Jul-15 23:34N 47°34' W 122°21'0 0.0
2016-Jul-15 22:34N 47°34' W 122°21'0 0.0
2016-Jul-15 21:33N 47°34' W 122°21'0 0.0
2016-Jul-15 20:33N 47°34' W 122°21'0 0.0
2016-Jul-15 19:33N 47°34' W 122°21'0 0.0
2016-Jul-15 18:33N 47°34' W 122°21'0 0.0
2016-Jul-15 17:33N 47°34' W 122°21'3 3.2
2016-Jul-15 16:34N 47°37' W 122°24'2 2.3
2016-Jul-15 15:33N 47°36' W 122°20'2 1.9
2016-Jul-15 14:34N 47°34' W 122°21'0 0.0
2016-Jul-15 01:27N 47°34' W 122°21'4 4.0
2016-Jul-15 00:33N 47°32' W 122°25'1514.7
2016-Jul-14 23:33N 47°18' W 122°27'2 0.1
2016-Jul-14 02:33N 47°16' W 122°26'1 1.4
2016-Jul-14 01:33N 47°17' W 122°25'2 0.7
2016-Jul-13 23:06N 47°15' W 122°26'0 0.0
2016-Jul-13 22:31N 47°15' W 122°26'0 0.0
2016-Jul-12 23:33N 47°16' W 122°26'1313.1
2016-Jul-12 22:33N 47°29' W 122°26'6 6.4
2016-Jul-12 21:33N 47°34' W 122°21'1 1.3
2016-Jul-12 20:33N 47°36' W 122°22'2 1.5
2016-Jul-12 19:33N 47°37' W 122°22'1 0.9
2016-Jul-12 18:33N 47°37' W 122°23'3 3.0
2016-Jul-12 17:33N 47°35' W 122°27'1212.1
2016-Jul-12 16:34N 47°24' W 122°32'  

Dump ship's entire track history